createdAt,value
2018-07-17T00:00:18.849Z,84.08
2018-07-17T00:02:48.033Z,83.90
2018-07-17T00:05:17.252Z,84.71
2018-07-17T00:07:46.464Z,84.91
2018-07-17T00:10:15.739Z,85.36
2018-07-17T00:12:45.024Z,85.08
2018-07-17T00:15:14.382Z,84.92
2018-07-17T00:17:43.448Z,83.88
2018-07-17T00:20:12.433Z,83.09
2018-07-17T00:22:41.537Z,83.22
2018-07-17T00:25:10.531Z,83.88
2018-07-17T00:27:40.511Z,83.95
2018-07-17T00:30:09.551Z,83.79
2018-07-17T00:32:38.564Z,84.54
2018-07-17T00:35:07.956Z,84.51
2018-07-17T00:37:36.919Z,85.32
2018-07-17T00:40:06.028Z,85.50
2018-07-17T00:42:35.073Z,85.44
2018-07-17T00:45:04.140Z,84.98
2018-07-17T00:47:33.158Z,85.26
2018-07-17T00:50:02.129Z,83.84
2018-07-17T00:52:31.148Z,83.27
2018-07-17T00:55:00.213Z,83.34
2018-07-17T00:57:29.350Z,82.63
2018-07-17T00:59:58.315Z,82.89
2018-07-17T01:02:32.444Z,82.37
2018-07-17T01:05:06.546Z,82.48
2018-07-17T01:07:40.725Z,82.57
2018-07-17T01:10:14.640Z,82.36
2018-07-17T01:12:42.646Z,82.31
2018-07-17T01:15:23.363Z,83.80
2018-07-17T01:17:52.455Z,84.37
2018-07-17T01:20:21.464Z,85.54
2018-07-17T01:22:50.452Z,85.76
2018-07-17T01:25:19.431Z,85.58
2018-07-17T01:27:48.407Z,85.47
2018-07-17T01:30:17.478Z,86.42
2018-07-17T01:32:46.488Z,86.03
2018-07-17T01:35:15.532Z,87.78
2018-07-17T01:37:44.562Z,87.16
2018-07-17T01:40:13.617Z,87.31
2018-07-17T01:42:42.645Z,87.10
2018-07-17T01:45:11.623Z,86.70
2018-07-17T01:47:40.593Z,86.67
2018-07-17T01:50:09.629Z,87.45
2018-07-17T01:52:38.704Z,88.18
2018-07-17T01:55:07.664Z,88.61
2018-07-17T01:57:36.624Z,89.15
2018-07-17T02:00:06.180Z,89.43
2018-07-17T02:02:35.191Z,89.19
2018-07-17T02:05:04.273Z,89.20
2018-07-17T02:07:33.239Z,89.61
2018-07-17T02:10:02.349Z,89.14
2018-07-17T02:12:31.676Z,89.09
2018-07-17T02:15:00.931Z,88.33
2018-07-17T02:17:30.171Z,89.40
2018-07-17T02:19:59.185Z,89.65
2018-07-17T02:22:28.232Z,89.37
2018-07-17T02:24:57.248Z,89.52
2018-07-17T02:27:26.364Z,90.15
2018-07-17T02:29:55.380Z,88.81
2018-07-17T02:32:24.352Z,88.62
2018-07-17T02:34:53.332Z,88.57
2018-07-17T02:37:22.349Z,88.22
2018-07-17T02:39:51.455Z,87.67
2018-07-17T02:42:20.481Z,86.57
2018-07-17T02:44:49.880Z,87.69
2018-07-17T02:47:18.849Z,87.38
2018-07-17T02:49:47.925Z,87.60
2018-07-17T02:52:16.901Z,88.03
2018-07-17T02:54:45.970Z,88.49
2018-07-17T02:57:14.966Z,88.09
2018-07-17T02:59:43.936Z,85.76
2018-07-17T03:02:12.957Z,86.84
2018-07-17T03:04:41.916Z,87.48
2018-07-17T03:07:11.158Z,86.97
2018-07-17T03:09:40.115Z,87.54
2018-07-17T03:12:09.254Z,87.92
2018-07-17T03:14:38.601Z,87.00
2018-07-17T03:17:07.969Z,86.96
2018-07-17T03:19:37.400Z,86.91
2018-07-17T03:22:06.601Z,86.64
2018-07-17T03:24:35.809Z,87.07
2018-07-17T03:27:05.361Z,86.28
2018-07-17T03:29:34.631Z,86.25
2018-07-17T03:32:04.024Z,85.31
2018-07-17T03:34:32.988Z,85.23
2018-07-17T03:37:02.032Z,84.41
2018-07-17T03:39:30.992Z,84.08
2018-07-17T03:42:00.053Z,84.13
2018-07-17T03:44:29.051Z,84.92
2018-07-17T03:46:58.044Z,85.09
2018-07-17T03:49:27.003Z,85.30
2018-07-17T03:51:56.036Z,84.68
2018-07-17T03:54:25.095Z,85.14
2018-07-17T03:56:54.076Z,84.74
2018-07-17T03:59:23.048Z,84.83
2018-07-17T04:01:52.056Z,84.84
2018-07-17T04:04:21.065Z,84.71
2018-07-17T04:06:50.147Z,84.49
2018-07-17T04:09:19.185Z,84.33
2018-07-17T04:11:48.217Z,84.07
2018-07-17T04:14:17.180Z,83.44
2018-07-17T04:17:00.409Z,83.89
2018-07-17T04:19:29.455Z,83.32
2018-07-17T04:21:58.525Z,83.12
2018-07-17T04:24:27.499Z,82.91
2018-07-17T04:26:56.472Z,81.03
2018-07-17T04:29:25.541Z,81.00
2018-07-17T04:31:54.540Z,80.56
2018-07-17T04:34:23.648Z,81.37
2018-07-17T04:36:52.597Z,81.35
2018-07-17T04:39:21.649Z,81.44
2018-07-17T04:41:50.631Z,81.88
2018-07-17T04:44:19.647Z,80.51
2018-07-17T04:46:48.631Z,81.53
2018-07-17T04:49:17.589Z,81.06
2018-07-17T04:51:46.664Z,80.25
2018-07-17T04:54:15.690Z,79.10
2018-07-17T04:56:44.980Z,78.72
2018-07-17T04:59:14.044Z,78.92
2018-07-17T05:01:43.167Z,78.00
2018-07-17T05:04:12.197Z,77.69
2018-07-17T05:06:41.277Z,76.75
2018-07-17T05:09:10.839Z,76.79
2018-07-17T05:11:40.104Z,76.01
2018-07-17T05:14:09.085Z,75.88
2018-07-17T05:16:38.087Z,75.65
2018-07-17T05:19:07.120Z,74.03
2018-07-17T05:21:36.124Z,73.46
2018-07-17T05:24:05.116Z,73.10
2018-07-17T05:26:34.339Z,72.17
2018-07-17T05:29:03.497Z,72.33
2018-07-17T05:31:32.676Z,71.21
2018-07-17T05:34:01.943Z,69.88
2018-07-17T05:36:31.020Z,70.55
2018-07-17T05:39:00.105Z,69.57
2018-07-17T05:41:29.495Z,67.45
2018-07-17T05:43:58.593Z,66.50
2018-07-17T05:46:27.711Z,66.32
2018-07-17T05:48:56.739Z,65.80
2018-07-17T05:51:25.758Z,65.51
2018-07-17T05:53:54.894Z,64.47
2018-07-17T05:56:24.008Z,66.03
2018-07-17T05:58:53.032Z,65.09
2018-07-17T06:01:22.180Z,64.24
2018-07-17T06:03:51.291Z,64.19
2018-07-17T06:06:20.384Z,64.00
2018-07-17T06:08:49.406Z,64.08
2018-07-17T06:11:18.427Z,63.11
2018-07-17T06:13:47.461Z,64.44
2018-07-17T06:16:16.564Z,61.49
2018-07-17T06:18:45.577Z,62.60
2018-07-17T06:21:14.549Z,60.22
2018-07-17T06:23:43.587Z,61.07
2018-07-17T06:26:12.576Z,61.21
2018-07-17T06:28:41.617Z,61.31
2018-07-17T06:31:10.596Z,62.31
2018-07-17T06:33:39.561Z,59.27
2018-07-17T06:36:09.432Z,60.27
2018-07-17T06:38:38.453Z,59.11
2018-07-17T06:41:07.622Z,58.51
2018-07-17T06:43:36.580Z,58.96
2018-07-17T06:46:05.880Z,59.03
2018-07-17T06:48:34.898Z,55.62
2018-07-17T06:51:03.920Z,56.51
2018-07-17T06:53:32.938Z,54.30
2018-07-17T06:56:01.967Z,55.34
2018-07-17T06:58:31.064Z,53.79
2018-07-17T07:01:00.052Z,53.22
2018-07-17T07:03:29.020Z,53.17
2018-07-17T07:05:58.020Z,52.37
2018-07-17T07:08:27.003Z,54.25
2018-07-17T07:10:56.026Z,50.43
2018-07-17T07:13:25.060Z,51.23
2018-07-17T07:15:54.121Z,49.61
2018-07-17T07:18:23.141Z,47.90
2018-07-17T07:20:52.132Z,49.75
2018-07-17T07:23:21.199Z,46.87
2018-07-17T07:25:50.261Z,48.39
2018-07-17T07:28:19.262Z,49.44
2018-07-17T07:30:48.413Z,46.94
2018-07-17T07:33:17.569Z,44.77
2018-07-17T07:35:46.661Z,43.97
2018-07-17T07:38:15.697Z,43.50
2018-07-17T07:40:44.724Z,45.42
2018-07-17T07:43:13.672Z,46.37
2018-07-17T07:45:42.623Z,46.19
2018-07-17T07:48:11.604Z,46.89
2018-07-17T07:50:40.572Z,44.47
2018-07-17T07:53:09.604Z,45.51
2018-07-17T07:55:38.642Z,44.43
2018-07-17T07:58:07.867Z,43.30
2018-07-17T08:00:36.847Z,42.36
2018-07-17T08:03:05.934Z,42.31
2018-07-17T08:05:34.945Z,43.62
2018-07-17T08:08:03.959Z,41.98
2018-07-17T08:10:33.036Z,42.50
2018-07-17T08:13:01.996Z,44.07
2018-07-17T08:15:31.092Z,42.71
2018-07-17T08:18:00.148Z,42.65
2018-07-17T08:20:29.107Z,41.94
2018-07-17T08:22:58.153Z,43.05
2018-07-17T08:25:27.206Z,43.19
2018-07-17T08:27:56.182Z,43.46
2018-07-17T08:30:25.732Z,42.48
2018-07-17T08:32:54.844Z,40.69
2018-07-17T08:35:23.903Z,40.50
2018-07-17T08:37:52.871Z,39.16
2018-07-17T08:40:21.928Z,37.81
2018-07-17T08:42:50.928Z,36.49
2018-07-17T08:45:19.936Z,37.20
2018-07-17T08:47:48.948Z,35.34
2018-07-17T08:50:18.038Z,36.84
2018-07-17T08:52:47.008Z,34.68
2018-07-17T08:55:15.968Z,33.82
2018-07-17T08:57:44.944Z,31.58
2018-07-17T09:00:14.323Z,33.47
2018-07-17T09:02:43.385Z,34.77
2018-07-17T09:05:12.415Z,34.55
2018-07-17T09:07:41.520Z,35.87
2018-07-17T09:10:10.731Z,36.24
2018-07-17T09:12:39.756Z,36.46
2018-07-17T09:15:08.780Z,38.48
2018-07-17T09:17:37.813Z,36.98
2018-07-17T09:20:07.001Z,36.22
2018-07-17T09:22:36.110Z,36.77
2018-07-17T09:25:05.441Z,37.02
2018-07-17T09:27:34.407Z,37.78
2018-07-17T09:30:03.461Z,38.21
2018-07-17T09:32:32.432Z,36.17
2018-07-17T09:35:01.456Z,36.65
2018-07-17T09:37:30.741Z,38.18
2018-07-17T09:39:59.717Z,40.00
2018-07-17T09:42:28.817Z,38.52
2018-07-17T09:44:57.798Z,37.67
2018-07-17T09:47:26.945Z,37.33
2018-07-17T09:49:55.912Z,36.48
2018-07-17T09:52:24.942Z,35.83
2018-07-17T09:54:53.924Z,38.40
2018-07-17T09:57:22.894Z,38.39
2018-07-17T09:59:51.932Z,38.49
2018-07-17T10:02:25.985Z,38.08
2018-07-17T10:04:55.030Z,37.06
2018-07-17T10:07:24.100Z,35.83
2018-07-17T10:09:53.078Z,35.82
2018-07-17T10:12:22.454Z,35.63
2018-07-17T10:14:51.684Z,34.69
2018-07-17T10:17:20.684Z,35.54
2018-07-17T10:19:53.470Z,35.33
2018-07-17T10:22:22.603Z,33.93
2018-07-17T10:24:51.673Z,35.28
2018-07-17T10:27:20.765Z,35.90
2018-07-17T10:29:49.816Z,36.27
2018-07-17T10:32:18.786Z,33.90
2018-07-17T10:34:47.841Z,34.25
2018-07-17T10:37:16.880Z,36.05
2018-07-17T10:39:46.084Z,36.23
2018-07-17T10:42:15.164Z,37.10
2018-07-17T10:44:44.129Z,38.40
2018-07-17T10:47:13.227Z,37.64
2018-07-17T10:49:42.204Z,37.05
2018-07-17T10:52:11.238Z,37.09
2018-07-17T10:54:40.271Z,38.18
2018-07-17T10:57:09.364Z,38.40
2018-07-17T10:59:38.420Z,38.62
2018-07-17T11:02:07.521Z,38.31
2018-07-17T11:04:36.569Z,39.72
2018-07-17T11:07:05.668Z,40.86
2018-07-17T11:09:34.635Z,42.03
2018-07-17T11:12:03.761Z,41.98
2018-07-17T11:14:32.844Z,42.80
2018-07-17T11:17:01.838Z,42.57
2018-07-17T11:19:30.871Z,44.11
2018-07-17T11:21:59.857Z,42.78
2018-07-17T11:24:28.832Z,44.46
2018-07-17T11:26:57.864Z,45.73
2018-07-17T11:29:26.832Z,46.69
2018-07-17T11:31:56.027Z,46.75
2018-07-17T11:34:25.145Z,47.93
2018-07-17T11:36:54.192Z,48.72
2018-07-17T11:39:23.276Z,49.02
2018-07-17T11:41:52.432Z,49.74
2018-07-17T11:44:21.407Z,49.85
2018-07-17T11:46:50.365Z,49.58
2018-07-17T11:49:19.509Z,50.07
2018-07-17T11:51:48.965Z,51.36
2018-07-17T11:54:17.951Z,52.13
2018-07-17T11:56:46.928Z,51.18
2018-07-17T11:59:15.930Z,52.25
2018-07-17T12:01:44.921Z,53.44
2018-07-17T12:04:14.278Z,55.28
2018-07-17T12:06:43.432Z,64.20
2018-07-17T12:09:12.405Z,66.20
2018-07-17T12:11:41.636Z,67.47
2018-07-17T12:14:10.623Z,67.81
2018-07-17T12:16:39.592Z,65.34
2018-07-17T12:19:08.688Z,62.66
2018-07-17T12:21:37.651Z,62.55
2018-07-17T12:24:06.760Z,56.25
2018-07-17T12:26:35.729Z,62.18
2018-07-17T12:29:04.845Z,61.67
2018-07-17T12:31:33.824Z,63.80
2018-07-17T12:34:02.848Z,66.39
2018-07-17T12:36:31.860Z,67.19
2018-07-17T12:39:00.823Z,67.03
2018-07-17T12:41:30.000Z,65.27
2018-07-17T12:43:59.245Z,66.00
2018-07-17T12:46:28.226Z,64.80
2018-07-17T12:48:57.416Z,66.38
2018-07-17T12:51:26.711Z,65.13
2018-07-17T12:53:56.168Z,63.58
2018-07-17T12:56:25.566Z,64.30
2018-07-17T12:58:54.589Z,64.03
2018-07-17T13:01:23.616Z,61.63
2018-07-17T13:03:52.687Z,60.86
2018-07-17T13:06:21.683Z,59.65
2018-07-17T13:08:50.655Z,59.79
2018-07-17T13:11:19.780Z,59.12
2018-07-17T13:13:48.772Z,59.92
2018-07-17T13:16:17.774Z,60.29
2018-07-17T13:18:46.873Z,59.71
2018-07-17T13:21:15.880Z,58.95
2018-07-17T13:23:44.933Z,59.62
2018-07-17T13:26:14.017Z,55.56
2018-07-17T13:28:43.272Z,56.07
2018-07-17T13:31:12.587Z,53.17
2018-07-17T13:33:41.656Z,54.83
2018-07-17T13:36:11.378Z,53.65
2018-07-17T13:38:40.378Z,54.38
2018-07-17T13:41:09.356Z,54.61
2018-07-17T13:43:38.447Z,53.62
2018-07-17T13:46:07.592Z,52.39
2018-07-17T13:48:36.619Z,51.46
2018-07-17T13:51:05.668Z,51.94
2018-07-17T13:53:34.730Z,52.86
2018-07-17T13:56:03.804Z,52.73
2018-07-17T13:58:32.785Z,51.44
2018-07-17T14:01:01.853Z,50.14
2018-07-17T14:03:30.961Z,50.60
2018-07-17T14:05:59.956Z,51.60
2018-07-17T14:08:28.969Z,50.23
2018-07-17T14:10:57.949Z,50.40
2018-07-17T14:13:27.129Z,50.00
2018-07-17T14:15:56.388Z,50.81
2018-07-17T14:18:25.428Z,49.71
2018-07-17T14:20:54.912Z,50.16
2018-07-17T14:23:24.048Z,52.58
2018-07-17T14:25:53.295Z,54.61
2018-07-17T14:28:22.332Z,52.72
2018-07-17T14:30:51.438Z,51.59
2018-07-17T14:33:20.578Z,52.90
2018-07-17T14:35:49.610Z,53.26
2018-07-17T14:38:18.732Z,53.84
2018-07-17T14:40:47.733Z,53.12
2018-07-17T14:43:16.764Z,53.46
2018-07-17T14:45:45.831Z,53.88
2018-07-17T14:48:14.884Z,54.15
2018-07-17T14:50:43.996Z,56.18
2018-07-17T14:53:13.000Z,57.84
2018-07-17T14:55:42.092Z,59.83
2018-07-17T14:58:11.157Z,61.60
2018-07-17T15:00:40.217Z,61.65
2018-07-17T15:03:09.411Z,65.55
2018-07-17T15:05:38.394Z,68.12
2018-07-17T15:08:07.486Z,71.07
2018-07-17T15:10:36.612Z,67.58
2018-07-17T15:13:05.644Z,69.07
2018-07-17T15:15:34.724Z,71.12
2018-07-17T15:18:04.089Z,70.70
2018-07-17T15:20:33.080Z,73.92
2018-07-17T15:23:02.105Z,72.85
2018-07-17T15:25:31.524Z,69.04
2018-07-17T15:28:00.830Z,74.05
2018-07-17T15:30:30.017Z,73.88
2018-07-17T15:32:59.402Z,77.10
2018-07-17T15:35:28.816Z,78.03
2018-07-17T15:37:58.153Z,78.97
2018-07-17T15:40:27.612Z,77.33
2018-07-17T15:42:57.049Z,78.71
2018-07-17T15:45:26.141Z,79.28
2018-07-17T15:47:55.191Z,79.82
2018-07-17T15:50:24.248Z,81.26
2018-07-17T15:52:53.316Z,83.42
2018-07-17T15:55:22.402Z,85.05
2018-07-17T15:57:51.411Z,85.08
2018-07-17T16:00:20.525Z,84.87
2018-07-17T16:02:49.491Z,85.81
2018-07-17T16:05:18.501Z,86.17
2018-07-17T16:07:47.512Z,88.53
2018-07-17T16:10:16.475Z,86.69
2018-07-17T16:12:45.544Z,86.40
2018-07-17T16:15:14.615Z,86.33
2018-07-17T16:17:43.670Z,86.36
2018-07-17T16:20:12.996Z,86.50
2018-07-17T16:22:42.197Z,86.27
2018-07-17T16:25:11.500Z,85.96
2018-07-17T16:27:40.596Z,85.79
2018-07-17T16:30:10.053Z,85.85
2018-07-17T16:32:39.452Z,85.37
2018-07-17T16:35:08.542Z,86.09
2018-07-17T16:37:37.617Z,84.23
2018-07-17T16:40:07.060Z,85.53
2018-07-17T16:42:36.395Z,87.21
2018-07-17T16:45:05.608Z,86.58
2018-07-17T16:47:34.945Z,86.98
2018-07-17T16:50:04.604Z,86.55
2018-07-17T16:52:34.050Z,87.85
2018-07-17T16:55:03.401Z,88.08
2018-07-17T16:57:32.516Z,87.24
2018-07-17T17:00:01.613Z,88.85
2018-07-17T17:02:30.644Z,89.36
2018-07-17T17:04:59.671Z,89.99
2018-07-17T17:07:28.663Z,89.90
2018-07-17T17:09:57.699Z,89.60
2018-07-17T17:12:26.725Z,88.78
2018-07-17T17:14:55.694Z,89.50
2018-07-17T17:17:25.061Z,88.81
2018-07-17T17:19:54.636Z,89.53
2018-07-17T17:22:23.752Z,90.51
2018-07-17T17:24:53.061Z,90.97
2018-07-17T17:27:22.191Z,91.84
2018-07-17T17:29:51.220Z,91.39
2018-07-17T17:32:20.207Z,92.02
2018-07-17T17:34:49.256Z,91.88
2018-07-17T17:37:18.297Z,92.88
2018-07-17T17:39:47.329Z,91.85
2018-07-17T17:42:16.303Z,93.55
2018-07-17T17:44:45.489Z,93.42
2018-07-17T17:47:14.460Z,93.37
2018-07-17T17:49:43.515Z,94.07
2018-07-17T17:52:12.564Z,94.67
2018-07-17T17:54:41.814Z,94.46
2018-07-17T17:57:10.828Z,94.59
2018-07-17T17:59:39.892Z,93.70
2018-07-17T18:02:09.162Z,94.69
2018-07-17T18:04:38.212Z,94.71
2018-07-17T18:07:07.392Z,94.05
2018-07-17T18:09:36.407Z,95.28
2018-07-17T18:12:05.504Z,95.57
2018-07-17T18:14:34.560Z,95.41
2018-07-17T18:17:03.874Z,95.63
2018-07-17T18:19:32.950Z,95.48
2018-07-17T18:22:09.035Z,95.13
2018-07-17T18:24:38.139Z,95.19
2018-07-17T18:27:07.256Z,94.64
2018-07-17T18:29:36.317Z,95.42
2018-07-17T18:32:05.377Z,95.19
2018-07-17T18:34:34.408Z,95.44
2018-07-17T18:37:03.411Z,96.30
2018-07-17T18:39:32.379Z,95.41
2018-07-17T18:42:01.414Z,95.86
2018-07-17T18:44:30.413Z,95.61
2018-07-17T18:46:59.446Z,95.07
2018-07-17T18:49:28.448Z,95.53
2018-07-17T18:51:57.588Z,94.36
2018-07-17T18:54:26.647Z,93.66
2018-07-17T18:56:55.669Z,94.41
2018-07-17T18:59:24.724Z,92.47
2018-07-17T19:01:53.718Z,93.59
2018-07-17T19:04:22.704Z,94.21
2018-07-17T19:06:51.837Z,94.43
2018-07-17T19:09:20.807Z,95.34
2018-07-17T19:11:49.817Z,94.94
2018-07-17T19:14:18.776Z,95.98
2018-07-17T19:16:47.887Z,93.77
2018-07-17T19:19:16.875Z,92.71
2018-07-17T19:21:45.900Z,92.22
2018-07-17T19:24:14.888Z,94.62
2018-07-17T19:26:43.867Z,94.20
2018-07-17T19:29:13.063Z,94.35
2018-07-17T19:31:42.020Z,94.29
2018-07-17T19:34:11.085Z,94.49
2018-07-17T19:36:40.060Z,94.85
2018-07-17T19:39:10.943Z,94.52
2018-07-17T19:41:39.996Z,95.04
2018-07-17T19:44:08.978Z,95.90
2018-07-17T19:46:37.980Z,96.63
2018-07-17T19:49:07.019Z,97.36
2018-07-17T19:51:36.144Z,97.15
2018-07-17T19:54:05.292Z,97.75
2018-07-17T19:56:34.439Z,98.22
2018-07-17T19:59:03.494Z,97.08
2018-07-17T20:01:32.533Z,97.30
2018-07-17T20:04:01.526Z,97.98
2018-07-17T20:06:30.580Z,98.83
2018-07-17T20:08:59.714Z,98.18
2018-07-17T20:11:28.700Z,98.67
2018-07-17T20:13:57.667Z,97.96
2018-07-17T20:16:26.787Z,99.16
2018-07-17T20:18:55.825Z,99.20
2018-07-17T20:21:24.958Z,99.12
2018-07-17T20:23:53.990Z,100.00
2018-07-17T20:26:23.032Z,99.74
2018-07-17T20:28:52.008Z,100.00
2018-07-17T20:31:21.100Z,99.94
2018-07-17T20:33:50.155Z,100.00
2018-07-17T20:36:19.114Z,100.00
2018-07-17T20:38:48.189Z,99.82
2018-07-17T20:41:17.180Z,100.00
2018-07-17T20:43:46.176Z,99.98
2018-07-17T20:46:15.182Z,100.00
2018-07-17T20:48:44.211Z,99.31
2018-07-17T20:51:13.225Z,99.31
2018-07-17T20:53:42.223Z,99.63
2018-07-17T20:56:11.272Z,100.00
2018-07-17T20:58:40.345Z,100.00
2018-07-17T21:01:09.674Z,100.00
2018-07-17T21:03:38.692Z,100.00
2018-07-17T21:06:07.967Z,100.00
2018-07-17T21:08:36.960Z,99.73
2018-07-17T21:11:06.099Z,99.70
2018-07-17T21:13:35.257Z,98.53
2018-07-17T21:16:04.355Z,97.63
2018-07-17T21:18:33.361Z,95.68
2018-07-17T21:21:02.427Z,94.66
2018-07-17T21:23:31.436Z,91.43
2018-07-17T21:26:00.493Z,93.00
2018-07-17T21:28:29.463Z,94.03
2018-07-17T21:30:58.580Z,93.66
2018-07-17T21:33:27.552Z,92.42
2018-07-17T21:35:56.542Z,94.09
2018-07-17T21:38:25.540Z,95.83
2018-07-17T21:40:54.512Z,97.36
2018-07-17T21:43:23.555Z,99.00
2018-07-17T21:45:52.572Z,99.35
2018-07-17T21:48:21.608Z,98.35
2018-07-17T21:50:50.576Z,99.28
2018-07-17T21:53:19.596Z,97.80
2018-07-17T21:55:48.649Z,97.81
2018-07-17T21:58:17.713Z,98.40
2018-07-17T22:00:46.726Z,98.61
2018-07-17T22:03:15.693Z,97.81
2018-07-17T22:05:44.872Z,98.05
2018-07-17T22:08:13.916Z,98.92
2018-07-17T22:10:42.936Z,98.24
2018-07-17T22:13:11.916Z,98.15
2018-07-17T22:15:40.953Z,98.80
2018-07-17T22:18:09.932Z,99.95
2018-07-17T22:20:39.298Z,99.69
2018-07-17T22:23:09.750Z,99.15
2018-07-17T22:25:44.688Z,98.74
2018-07-17T22:28:15.330Z,99.12
2018-07-17T22:30:45.703Z,99.40
2018-07-17T22:33:17.329Z,99.37
2018-07-17T22:35:47.621Z,99.71
2018-07-17T22:38:17.825Z,99.81
2018-07-17T22:40:48.721Z,99.97
2018-07-17T22:43:18.629Z,100.00
2018-07-17T22:45:48.408Z,99.93
2018-07-17T22:48:19.432Z,99.27
2018-07-17T22:50:48.905Z,99.32
2018-07-17T22:53:20.404Z,99.55
2018-07-17T22:55:51.305Z,99.64
2018-07-17T22:58:22.900Z,98.89
2018-07-17T23:00:51.896Z,99.42
2018-07-17T23:03:22.991Z,99.86
2018-07-17T23:05:52.825Z,98.57
2018-07-17T23:08:23.839Z,98.74
2018-07-17T23:10:54.981Z,98.48
2018-07-17T23:13:25.408Z,96.83
2018-07-17T23:15:55.606Z,96.65
2018-07-17T23:18:25.350Z,96.42
2018-07-17T23:20:55.176Z,95.42
2018-07-17T23:23:29.088Z,94.29
2018-07-17T23:26:03.394Z,95.25
2018-07-17T23:28:36.180Z,94.12
2018-07-17T23:31:09.404Z,94.97
2018-07-17T23:33:38.364Z,94.32
2018-07-17T23:36:07.597Z,93.38
2018-07-17T23:38:36.588Z,92.61
2018-07-17T23:41:05.584Z,92.66
2018-07-17T23:43:34.641Z,92.97
2018-07-17T23:46:03.608Z,92.52
2018-07-17T23:48:32.676Z,92.03
2018-07-17T23:51:01.665Z,92.42
2018-07-17T23:53:30.632Z,92.98
2018-07-17T23:55:59.620Z,92.44
2018-07-17T23:58:28.697Z,93.01
